sensor_id;sensor_type;location;lat;lon;timestamp;temperature;humidity
61916;DHT22;47868;51.326;6.550;2023-01-29T00:01:44;0.60;99.90
61916;DHT22;47868;51.326;6.550;2023-01-29T00:04:09;0.70;99.90
61916;DHT22;47868;51.326;6.550;2023-01-29T00:06:35;0.70;99.90
61916;DHT22;47868;51.326;6.550;2023-01-29T00:09:01;0.60;99.90
61916;DHT22;47868;51.326;6.550;2023-01-29T00:11:26;0.50;99.90
61916;DHT22;47868;51.326;6.550;2023-01-29T00:13:52;0.50;99.90
61916;DHT22;47868;51.326;6.550;2023-01-29T00:16:18;0.50;99.90
61916;DHT22;47868;51.326;6.550;2023-01-29T00:18:44;0.50;99.90
61916;DHT22;47868;51.326;6.550;2023-01-29T00:21:15;0.60;99.90
61916;DHT22;47868;51.326;6.550;2023-01-29T00:23:41;0.60;99.90
61916;DHT22;47868;51.326;6.550;2023-01-29T00:26:07;0.70;99.90
61916;DHT22;47868;51.326;6.550;2023-01-29T00:28:33;0.70;99.90
61916;DHT22;47868;51.326;6.550;2023-01-29T00:31:15;0.70;99.90
61916;DHT22;47868;51.326;6.550;2023-01-29T00:33:41;0.70;99.90
61916;DHT22;47868;51.326;6.550;2023-01-29T00:36:09;0.70;99.90
61916;DHT22;47868;51.326;6.550;2023-01-29T00:38:35;0.70;99.90
61916;DHT22;47868;51.326;6.550;2023-01-29T00:41:08;0.70;99.90
61916;DHT22;47868;51.326;6.550;2023-01-29T00:43:52;0.70;99.90
61916;DHT22;47868;51.326;6.550;2023-01-29T00:46:36;0.70;99.90
61916;DHT22;47868;51.326;6.550;2023-01-29T00:49:03;0.70;99.90
61916;DHT22;47868;51.326;6.550;2023-01-29T00:51:28;0.70;99.90
61916;DHT22;47868;51.326;6.550;2023-01-29T00:53:54;0.70;99.90
61916;DHT22;47868;51.326;6.550;2023-01-29T00:56:23;0.70;99.90
61916;DHT22;47868;51.326;6.550;2023-01-29T00:58:49;0.70;99.90
61916;DHT22;47868;51.326;6.550;2023-01-29T01:01:15;0.60;99.90
61916;DHT22;47868;51.326;6.550;2023-01-29T01:03:40;0.60;99.90
61916;DHT22;47868;51.326;6.550;2023-01-29T01:06:08;0.60;99.90
61916;DHT22;47868;51.326;6.550;2023-01-29T01:08:34;0.60;99.90
61916;DHT22;47868;51.326;6.550;2023-01-29T01:11:18;0.60;99.90
61916;DHT22;47868;51.326;6.550;2023-01-29T01:13:45;0.60;99.90
61916;DHT22;47868;51.326;6.550;2023-01-29T01:16:15;0.70;99.90
61916;DHT22;47868;51.326;6.550;2023-01-29T01:18:41;0.60;99.90
61916;DHT22;47868;51.326;6.550;2023-01-29T01:21:07;0.60;99.90
61916;DHT22;47868;51.326;6.550;2023-01-29T01:23:33;0.50;99.90
61916;DHT22;47868;51.326;6.550;2023-01-29T01:25:59;0.50;99.90
61916;DHT22;47868;51.326;6.550;2023-01-29T01:28:25;0.50;99.90
61916;DHT22;47868;51.326;6.550;2023-01-29T01:30:50;0.50;99.90
61916;DHT22;47868;51.326;6.550;2023-01-29T01:33:16;0.50;99.90
61916;DHT22;47868;51.326;6.550;2023-01-29T01:35:42;0.50;99.90
61916;DHT22;47868;51.326;6.550;2023-01-29T01:38:07;0.50;99.90
61916;DHT22;47868;51.326;6.550;2023-01-29T01:40:33;0.50;99.90
61916;DHT22;47868;51.326;6.550;2023-01-29T01:43:00;0.50;99.90
61916;DHT22;47868;51.326;6.550;2023-01-29T01:45:33;0.50;99.90
61916;DHT22;47868;51.326;6.550;2023-01-29T01:48:12;0.60;99.90
61916;DHT22;47868;51.326;6.550;2023-01-29T01:53:21;0.50;99.90
61916;DHT22;47868;51.326;6.550;2023-01-29T01:55:52;0.40;99.90
61916;DHT22;47868;51.326;6.550;2023-01-29T01:58:40;0.40;99.90
61916;DHT22;47868;51.326;6.550;2023-01-29T02:01:07;0.40;99.90
61916;DHT22;47868;51.326;6.550;2023-01-29T02:03:42;0.40;99.90
61916;DHT22;47868;51.326;6.550;2023-01-29T02:06:28;0.30;99.90
61916;DHT22;47868;51.326;6.550;2023-01-29T02:09:17;0.20;99.90
61916;DHT22;47868;51.326;6.550;2023-01-29T02:12:16;0.30;99.90
61916;DHT22;47868;51.326;6.550;2023-01-29T02:14:43;0.30;99.90
61916;DHT22;47868;51.326;6.550;2023-01-29T02:17:14;0.30;99.90
61916;DHT22;47868;51.326;6.550;2023-01-29T02:20:17;0.40;99.90
61916;DHT22;47868;51.326;6.550;2023-01-29T02:33:33;0.30;99.90
61916;DHT22;47868;51.326;6.550;2023-01-29T02:41:49;0.30;99.90
61916;DHT22;47868;51.326;6.550;2023-01-29T02:44:23;0.40;99.90
61916;DHT22;47868;51.326;6.550;2023-01-29T02:47:04;0.40;99.90
61916;DHT22;47868;51.326;6.550;2023-01-29T02:49:46;0.50;99.90
61916;DHT22;47868;51.326;6.550;2023-01-29T02:52:24;0.50;99.90
61916;DHT22;47868;51.326;6.550;2023-01-29T02:57:24;0.50;99.90
61916;DHT22;47868;51.326;6.550;2023-01-29T02:59:59;0.50;99.90
61916;DHT22;47868;51.326;6.550;2023-01-29T03:02:40;0.40;99.90
61916;DHT22;47868;51.326;6.550;2023-01-29T03:05:11;0.40;99.90
61916;DHT22;47868;51.326;6.550;2023-01-29T03:07:44;0.30;99.90
61916;DHT22;47868;51.326;6.550;2023-01-29T03:10:23;0.30;99.90
61916;DHT22;47868;51.326;6.550;2023-01-29T03:12:58;0.30;99.90
61916;DHT22;47868;51.326;6.550;2023-01-29T03:15:30;0.30;99.90
61916;DHT22;47868;51.326;6.550;2023-01-29T03:18:17;0.30;99.90
61916;DHT22;47868;51.326;6.550;2023-01-29T03:20:48;0.30;99.90
61916;DHT22;47868;51.326;6.550;2023-01-29T03:23:23;0.30;99.90
61916;DHT22;47868;51.326;6.550;2023-01-29T03:25:53;0.30;99.90
61916;DHT22;47868;51.326;6.550;2023-01-29T03:28:40;0.30;99.90
61916;DHT22;47868;51.326;6.550;2023-01-29T03:31:26;0.30;99.90
61916;DHT22;47868;51.326;6.550;2023-01-29T03:34:22;0.20;99.90
61916;DHT22;47868;51.326;6.550;2023-01-29T03:36:56;0.10;99.90
61916;DHT22;47868;51.326;6.550;2023-01-29T03:39:26;0.10;99.90
61916;DHT22;47868;51.326;6.550;2023-01-29T03:41:56;0.10;99.90
61916;DHT22;47868;51.326;6.550;2023-01-29T03:47:19;0.10;99.90
61916;DHT22;47868;51.326;6.550;2023-01-29T03:50:14;0.10;99.90
61916;DHT22;47868;51.326;6.550;2023-01-29T03:53:34;0.10;99.90
61916;DHT22;47868;51.326;6.550;2023-01-29T04:01:24;0.10;99.90
61916;DHT22;47868;51.326;6.550;2023-01-29T04:04:08;0.10;99.90
61916;DHT22;47868;51.326;6.550;2023-01-29T04:06:37;0.10;99.90
61916;DHT22;47868;51.326;6.550;2023-01-29T04:09:20;0.10;99.90
61916;DHT22;47868;51.326;6.550;2023-01-29T04:11:53;0.10;99.90
61916;DHT22;47868;51.326;6.550;2023-01-29T04:14:22;0.10;99.90
61916;DHT22;47868;51.326;6.550;2023-01-29T04:16:51;0.10;99.90
61916;DHT22;47868;51.326;6.550;2023-01-29T04:19:17;0.20;99.90
61916;DHT22;47868;51.326;6.550;2023-01-29T04:21:44;0.20;99.90
61916;DHT22;47868;51.326;6.550;2023-01-29T04:24:12;0.20;99.90
61916;DHT22;47868;51.326;6.550;2023-01-29T04:26:49;0.10;99.90
61916;DHT22;47868;51.326;6.550;2023-01-29T04:29:43;0.20;99.90
61916;DHT22;47868;51.326;6.550;2023-01-29T04:32:15;0.20;99.90
61916;DHT22;47868;51.326;6.550;2023-01-29T04:37:12;0.30;99.90
61916;DHT22;47868;51.326;6.550;2023-01-29T04:45:00;0.40;99.90
61916;DHT22;47868;51.326;6.550;2023-01-29T04:53:35;0.50;99.90
61916;DHT22;47868;51.326;6.550;2023-01-29T04:55:45;0.50;99.90
61916;DHT22;47868;51.326;6.550;2023-01-29T05:00:52;0.60;99.90
61916;DHT22;47868;51.326;6.550;2023-01-29T05:03:22;0.70;99.90
61916;DHT22;47868;51.326;6.550;2023-01-29T05:05:49;0.60;99.90
61916;DHT22;47868;51.326;6.550;2023-01-29T05:08:18;0.70;99.90
61916;DHT22;47868;51.326;6.550;2023-01-29T05:10:46;0.70;99.90
61916;DHT22;47868;51.326;6.550;2023-01-29T05:13:13;0.70;99.90
61916;DHT22;47868;51.326;6.550;2023-01-29T05:15:45;0.80;99.90
61916;DHT22;47868;51.326;6.550;2023-01-29T05:18:12;0.80;99.90
61916;DHT22;47868;51.326;6.550;2023-01-29T05:20:39;0.80;99.90
61916;DHT22;47868;51.326;6.550;2023-01-29T05:23:15;0.80;99.90
61916;DHT22;47868;51.326;6.550;2023-01-29T05:25:42;0.80;99.90
61916;DHT22;47868;51.326;6.550;2023-01-29T05:28:08;0.90;99.90
61916;DHT22;47868;51.326;6.550;2023-01-29T05:30:47;0.90;99.90
61916;DHT22;47868;51.326;6.550;2023-01-29T05:33:19;0.90;99.90
61916;DHT22;47868;51.326;6.550;2023-01-29T05:35:45;0.90;99.90
61916;DHT22;47868;51.326;6.550;2023-01-29T05:38:12;0.90;99.90
61916;DHT22;47868;51.326;6.550;2023-01-29T05:40:38;0.90;99.90
61916;DHT22;47868;51.326;6.550;2023-01-29T05:43:04;0.90;99.90
61916;DHT22;47868;51.326;6.550;2023-01-29T05:45:30;1.00;99.90
61916;DHT22;47868;51.326;6.550;2023-01-29T05:47:57;0.90;99.90
61916;DHT22;47868;51.326;6.550;2023-01-29T05:50:25;0.90;99.90
61916;DHT22;47868;51.326;6.550;2023-01-29T05:53:00;0.80;99.90
61916;DHT22;47868;51.326;6.550;2023-01-29T05:55:26;0.80;99.90
61916;DHT22;47868;51.326;6.550;2023-01-29T05:57:54;0.80;99.90
61916;DHT22;47868;51.326;6.550;2023-01-29T06:00:20;0.70;99.90
61916;DHT22;47868;51.326;6.550;2023-01-29T06:02:46;0.70;99.90
61916;DHT22;47868;51.326;6.550;2023-01-29T06:05:11;0.60;99.90
61916;DHT22;47868;51.326;6.550;2023-01-29T06:07:38;0.60;99.90
61916;DHT22;47868;51.326;6.550;2023-01-29T06:10:04;0.70;99.90
61916;DHT22;47868;51.326;6.550;2023-01-29T06:12:30;0.70;99.90
61916;DHT22;47868;51.326;6.550;2023-01-29T06:14:56;0.70;99.90
61916;DHT22;47868;51.326;6.550;2023-01-29T06:17:22;0.70;99.90
61916;DHT22;47868;51.326;6.550;2023-01-29T06:19:47;0.70;99.90
61916;DHT22;47868;51.326;6.550;2023-01-29T06:22:13;0.80;99.90
61916;DHT22;47868;51.326;6.550;2023-01-29T06:24:38;0.80;99.90
61916;DHT22;47868;51.326;6.550;2023-01-29T06:27:04;0.80;99.90
61916;DHT22;47868;51.326;6.550;2023-01-29T06:29:29;0.80;99.90
61916;DHT22;47868;51.326;6.550;2023-01-29T06:31:55;0.80;99.90
61916;DHT22;47868;51.326;6.550;2023-01-29T06:34:21;0.90;99.90
61916;DHT22;47868;51.326;6.550;2023-01-29T06:36:46;0.90;99.90
61916;DHT22;47868;51.326;6.550;2023-01-29T06:39:12;0.90;99.90
61916;DHT22;47868;51.326;6.550;2023-01-29T06:41:37;1.00;99.90
61916;DHT22;47868;51.326;6.550;2023-01-29T06:44:03;1.00;99.90
61916;DHT22;47868;51.326;6.550;2023-01-29T06:46:29;1.00;99.90
61916;DHT22;47868;51.326;6.550;2023-01-29T06:48:57;1.10;99.90
61916;DHT22;47868;51.326;6.550;2023-01-29T06:51:24;1.10;99.90
61916;DHT22;47868;51.326;6.550;2023-01-29T06:53:49;1.00;99.90
61916;DHT22;47868;51.326;6.550;2023-01-29T06:56:15;1.10;99.90
61916;DHT22;47868;51.326;6.550;2023-01-29T06:58:40;1.10;99.90
61916;DHT22;47868;51.326;6.550;2023-01-29T07:01:09;1.10;99.90
61916;DHT22;47868;51.326;6.550;2023-01-29T07:03:35;1.10;99.90
61916;DHT22;47868;51.326;6.550;2023-01-29T07:06:01;1.20;99.90
61916;DHT22;47868;51.326;6.550;2023-01-29T07:08:27;1.20;99.90
61916;DHT22;47868;51.326;6.550;2023-01-29T07:11:00;1.30;99.90
61916;DHT22;47868;51.326;6.550;2023-01-29T07:13:26;1.20;99.90
61916;DHT22;47868;51.326;6.550;2023-01-29T07:15:51;1.20;99.90
61916;DHT22;47868;51.326;6.550;2023-01-29T07:18:17;1.20;99.90
61916;DHT22;47868;51.326;6.550;2023-01-29T07:20:43;1.20;99.90
61916;DHT22;47868;51.326;6.550;2023-01-29T07:23:11;1.20;99.90
61916;DHT22;47868;51.326;6.550;2023-01-29T07:25:37;1.30;99.90
61916;DHT22;47868;51.326;6.550;2023-01-29T07:28:03;1.20;99.90
61916;DHT22;47868;51.326;6.550;2023-01-29T07:30:29;1.20;99.90
61916;DHT22;47868;51.326;6.550;2023-01-29T07:33:03;1.20;99.90
61916;DHT22;47868;51.326;6.550;2023-01-29T07:35:28;1.30;99.90
61916;DHT22;47868;51.326;6.550;2023-01-29T07:37:54;1.30;99.90
61916;DHT22;47868;51.326;6.550;2023-01-29T07:40:20;1.30;99.90
61916;DHT22;47868;51.326;6.550;2023-01-29T07:42:45;1.30;99.90
61916;DHT22;47868;51.326;6.550;2023-01-29T07:45:11;1.40;99.90
61916;DHT22;47868;51.326;6.550;2023-01-29T07:47:36;1.30;99.90
61916;DHT22;47868;51.326;6.550;2023-01-29T07:50:03;1.40;99.90
61916;DHT22;47868;51.326;6.550;2023-01-29T07:52:30;1.50;99.90
61916;DHT22;47868;51.326;6.550;2023-01-29T07:54:56;1.50;99.90
61916;DHT22;47868;51.326;6.550;2023-01-29T07:57:21;1.50;99.90
61916;DHT22;47868;51.326;6.550;2023-01-29T07:59:47;1.50;99.90
61916;DHT22;47868;51.326;6.550;2023-01-29T08:02:13;1.50;99.90
61916;DHT22;47868;51.326;6.550;2023-01-29T08:04:38;1.60;99.90
61916;DHT22;47868;51.326;6.550;2023-01-29T08:07:04;1.60;99.90
61916;DHT22;47868;51.326;6.550;2023-01-29T08:09:30;1.70;99.90
61916;DHT22;47868;51.326;6.550;2023-01-29T08:11:56;1.70;99.90
61916;DHT22;47868;51.326;6.550;2023-01-29T08:14:22;1.80;99.90
61916;DHT22;47868;51.326;6.550;2023-01-29T08:16:48;1.80;99.90
61916;DHT22;47868;51.326;6.550;2023-01-29T08:19:14;1.90;99.90
61916;DHT22;47868;51.326;6.550;2023-01-29T08:21:40;1.90;99.90
61916;DHT22;47868;51.326;6.550;2023-01-29T08:24:06;1.90;99.90
61916;DHT22;47868;51.326;6.550;2023-01-29T08:26:31;1.90;99.90
61916;DHT22;47868;51.326;6.550;2023-01-29T08:28:57;1.90;99.90
61916;DHT22;47868;51.326;6.550;2023-01-29T08:31:23;2.00;99.90
61916;DHT22;47868;51.326;6.550;2023-01-29T08:33:49;1.90;99.90
61916;DHT22;47868;51.326;6.550;2023-01-29T08:36:15;1.90;99.90
61916;DHT22;47868;51.326;6.550;2023-01-29T08:38:41;1.90;99.90
61916;DHT22;47868;51.326;6.550;2023-01-29T08:41:06;1.90;99.90
61916;DHT22;47868;51.326;6.550;2023-01-29T08:43:33;2.00;99.90
61916;DHT22;47868;51.326;6.550;2023-01-29T08:46:02;2.10;99.90
61916;DHT22;47868;51.326;6.550;2023-01-29T08:48:28;2.10;99.90
61916;DHT22;47868;51.326;6.550;2023-01-29T08:50:57;2.20;99.90
61916;DHT22;47868;51.326;6.550;2023-01-29T08:53:23;2.20;99.90
61916;DHT22;47868;51.326;6.550;2023-01-29T08:55:49;2.20;99.90
61916;DHT22;47868;51.326;6.550;2023-01-29T08:58:14;2.20;99.90
61916;DHT22;47868;51.326;6.550;2023-01-29T09:00:40;2.20;99.90
61916;DHT22;47868;51.326;6.550;2023-01-29T09:03:06;2.20;99.90
61916;DHT22;47868;51.326;6.550;2023-01-29T09:05:33;2.20;99.90
61916;DHT22;47868;51.326;6.550;2023-01-29T09:07:59;2.30;99.90
61916;DHT22;47868;51.326;6.550;2023-01-29T09:10:25;2.30;99.90
61916;DHT22;47868;51.326;6.550;2023-01-29T09:12:51;2.30;99.90
61916;DHT22;47868;51.326;6.550;2023-01-29T09:15:17;2.30;99.90
61916;DHT22;47868;51.326;6.550;2023-01-29T09:17:42;2.30;99.90
61916;DHT22;47868;51.326;6.550;2023-01-29T09:20:09;2.30;99.90
61916;DHT22;47868;51.326;6.550;2023-01-29T09:22:34;2.30;99.90
61916;DHT22;47868;51.326;6.550;2023-01-29T09:25:00;2.30;99.90
61916;DHT22;47868;51.326;6.550;2023-01-29T09:27:26;2.40;99.90
61916;DHT22;47868;51.326;6.550;2023-01-29T09:29:51;2.40;99.90
61916;DHT22;47868;51.326;6.550;2023-01-29T09:32:17;2.40;99.90
61916;DHT22;47868;51.326;6.550;2023-01-29T09:34:42;2.50;99.90
61916;DHT22;47868;51.326;6.550;2023-01-29T09:37:08;2.30;99.90
61916;DHT22;47868;51.326;6.550;2023-01-29T09:39:34;2.40;99.90
61916;DHT22;47868;51.326;6.550;2023-01-29T09:47:10;2.50;99.90
61916;DHT22;47868;51.326;6.550;2023-01-29T09:49:41;2.50;99.90
61916;DHT22;47868;51.326;6.550;2023-01-29T09:52:27;2.50;99.90
61916;DHT22;47868;51.326;6.550;2023-01-29T09:57:38;2.50;99.90
61916;DHT22;47868;51.326;6.550;2023-01-29T10:00:08;2.40;99.90
61916;DHT22;47868;51.326;6.550;2023-01-29T10:11:13;2.50;99.90
61916;DHT22;47868;51.326;6.550;2023-01-29T10:14:18;2.60;99.90
61916;DHT22;47868;51.326;6.550;2023-01-29T10:17:25;2.70;99.90
61916;DHT22;47868;51.326;6.550;2023-01-29T10:25:16;2.90;99.90
61916;DHT22;47868;51.326;6.550;2023-01-29T10:27:56;2.90;99.90
61916;DHT22;47868;51.326;6.550;2023-01-29T10:30:38;2.90;99.90
61916;DHT22;47868;51.326;6.550;2023-01-29T10:33:08;2.90;99.90
61916;DHT22;47868;51.326;6.550;2023-01-29T10:35:47;3.00;99.90
61916;DHT22;47868;51.326;6.550;2023-01-29T10:38:25;3.10;99.90
61916;DHT22;47868;51.326;6.550;2023-01-29T10:46:59;2.90;99.90
61916;DHT22;47868;51.326;6.550;2023-01-29T11:00:57;3.20;99.90
61916;DHT22;47868;51.326;6.550;2023-01-29T11:03:28;3.30;99.90
61916;DHT22;47868;51.326;6.550;2023-01-29T11:06:08;3.30;99.90
61916;DHT22;47868;51.326;6.550;2023-01-29T11:08:41;3.40;99.90
61916;DHT22;47868;51.326;6.550;2023-01-29T11:11:15;3.40;99.90
61916;DHT22;47868;51.326;6.550;2023-01-29T11:13:57;3.30;99.90
61916;DHT22;47868;51.326;6.550;2023-01-29T11:16:26;3.40;99.90
61916;DHT22;47868;51.326;6.550;2023-01-29T11:18:58;3.50;99.90
61916;DHT22;47868;51.326;6.550;2023-01-29T11:21:26;3.50;99.90
61916;DHT22;47868;51.326;6.550;2023-01-29T11:24:14;3.60;99.90
61916;DHT22;47868;51.326;6.550;2023-01-29T11:26:43;3.50;99.90
61916;DHT22;47868;51.326;6.550;2023-01-29T11:29:33;3.50;99.90
61916;DHT22;47868;51.326;6.550;2023-01-29T11:32:00;3.50;99.90
61916;DHT22;47868;51.326;6.550;2023-01-29T11:34:27;3.40;99.90
61916;DHT22;47868;51.326;6.550;2023-01-29T11:39:24;3.30;99.90
61916;DHT22;47868;51.326;6.550;2023-01-29T11:41:55;3.50;99.90
61916;DHT22;47868;51.326;6.550;2023-01-29T11:44:40;3.50;99.90
61916;DHT22;47868;51.326;6.550;2023-01-29T11:49:52;3.60;99.90
61916;DHT22;47868;51.326;6.550;2023-01-29T11:52:20;3.60;99.90
61916;DHT22;47868;51.326;6.550;2023-01-29T11:54:53;3.70;99.90
61916;DHT22;47868;51.326;6.550;2023-01-29T11:57:37;3.70;99.90
61916;DHT22;47868;51.326;6.550;2023-01-29T12:02:53;3.80;99.90
61916;DHT22;47868;51.326;6.550;2023-01-29T12:05:23;3.80;99.90
61916;DHT22;47868;51.326;6.550;2023-01-29T12:07:52;3.90;99.90
61916;DHT22;47868;51.326;6.550;2023-01-29T12:15:41;3.80;99.90
61916;DHT22;47868;51.326;6.550;2023-01-29T12:18:19;3.70;99.90
61916;DHT22;47868;51.326;6.550;2023-01-29T12:20:53;3.70;99.90
61916;DHT22;47868;51.326;6.550;2023-01-29T12:23:46;3.70;99.90
61916;DHT22;47868;51.326;6.550;2023-01-29T12:26:17;3.70;99.90
61916;DHT22;47868;51.326;6.550;2023-01-29T12:36:54;3.90;99.90
61916;DHT22;47868;51.326;6.550;2023-01-29T12:39:21;3.80;99.90
61916;DHT22;47868;51.326;6.550;2023-01-29T12:41:52;3.70;99.90
61916;DHT22;47868;51.326;6.550;2023-01-29T12:44:31;3.80;99.90
61916;DHT22;47868;51.326;6.550;2023-01-29T12:46:59;3.70;99.90
61916;DHT22;47868;51.326;6.550;2023-01-29T12:49:32;3.70;99.90
61916;DHT22;47868;51.326;6.550;2023-01-29T12:57:42;3.70;99.90
61916;DHT22;47868;51.326;6.550;2023-01-29T13:00:12;3.80;99.90
61916;DHT22;47868;51.326;6.550;2023-01-29T13:10:57;3.90;99.90
61916;DHT22;47868;51.326;6.550;2023-01-29T13:16:06;3.80;99.90
61916;DHT22;47868;51.326;6.550;2023-01-29T13:19:04;3.80;99.90
61916;DHT22;47868;51.326;6.550;2023-01-29T13:21:38;3.80;99.90
61916;DHT22;47868;51.326;6.550;2023-01-29T13:24:17;3.80;99.90
61916;DHT22;47868;51.326;6.550;2023-01-29T13:26:45;3.70;99.90
61916;DHT22;47868;51.326;6.550;2023-01-29T13:29:26;3.70;99.90
61916;DHT22;47868;51.326;6.550;2023-01-29T13:31:54;3.70;99.90
61916;DHT22;47868;51.326;6.550;2023-01-29T13:34:29;3.70;99.90
61916;DHT22;47868;51.326;6.550;2023-01-29T13:37:01;3.60;99.90
61916;DHT22;47868;51.326;6.550;2023-01-29T13:41:57;3.50;99.90
61916;DHT22;47868;51.326;6.550;2023-01-29T13:44:27;3.40;99.90
61916;DHT22;47868;51.326;6.550;2023-01-29T13:55:52;3.50;99.90
61916;DHT22;47868;51.326;6.550;2023-01-29T13:58:02;3.50;99.90
61916;DHT22;47868;51.326;6.550;2023-01-29T14:13:37;3.50;99.90
61916;DHT22;47868;51.326;6.550;2023-01-29T14:18:30;3.50;99.90
61916;DHT22;47868;51.326;6.550;2023-01-29T14:20:57;3.50;99.90
61916;DHT22;47868;51.326;6.550;2023-01-29T14:23:37;3.50;99.90
61916;DHT22;47868;51.326;6.550;2023-01-29T14:26:26;3.50;99.90
61916;DHT22;47868;51.326;6.550;2023-01-29T14:31:40;3.50;99.90
61916;DHT22;47868;51.326;6.550;2023-01-29T14:36:51;3.60;99.90
61916;DHT22;47868;51.326;6.550;2023-01-29T14:39:32;3.60;99.90
61916;DHT22;47868;51.326;6.550;2023-01-29T14:41:59;3.60;99.90
61916;DHT22;47868;51.326;6.550;2023-01-29T14:56:00;3.50;99.90
61916;DHT22;47868;51.326;6.550;2023-01-29T15:00:59;3.40;99.90
61916;DHT22;47868;51.326;6.550;2023-01-29T15:03:45;3.40;99.90
61916;DHT22;47868;51.326;6.550;2023-01-29T15:06:17;3.40;99.90
61916;DHT22;47868;51.326;6.550;2023-01-29T15:08:55;3.50;99.90
61916;DHT22;47868;51.326;6.550;2023-01-29T15:11:31;3.50;99.90
61916;DHT22;47868;51.326;6.550;2023-01-29T15:19:42;3.50;99.90
61916;DHT22;47868;51.326;6.550;2023-01-29T15:22:16;3.50;99.90
61916;DHT22;47868;51.326;6.550;2023-01-29T15:24:43;3.40;99.90
61916;DHT22;47868;51.326;6.550;2023-01-29T15:27:18;3.40;99.90
61916;DHT22;47868;51.326;6.550;2023-01-29T15:29:51;3.40;99.90
61916;DHT22;47868;51.326;6.550;2023-01-29T15:32:34;3.40;99.90
61916;DHT22;47868;51.326;6.550;2023-01-29T15:37:42;3.30;99.90
61916;DHT22;47868;51.326;6.550;2023-01-29T15:40:14;3.30;99.90
61916;DHT22;47868;51.326;6.550;2023-01-29T15:42:45;3.40;99.90
61916;DHT22;47868;51.326;6.550;2023-01-29T15:45:29;3.40;99.90
61916;DHT22;47868;51.326;6.550;2023-01-29T15:48:07;3.40;99.90
61916;DHT22;47868;51.326;6.550;2023-01-29T15:50:40;3.40;99.90
61916;DHT22;47868;51.326;6.550;2023-01-29T15:53:29;3.40;99.90
61916;DHT22;47868;51.326;6.550;2023-01-29T15:55:53;3.40;99.90
61916;DHT22;47868;51.326;6.550;2023-01-29T15:58:26;3.40;99.90
61916;DHT22;47868;51.326;6.550;2023-01-29T16:00:54;3.40;99.90
61916;DHT22;47868;51.326;6.550;2023-01-29T16:03:25;3.40;99.90
61916;DHT22;47868;51.326;6.550;2023-01-29T16:05:53;3.40;99.90
61916;DHT22;47868;51.326;6.550;2023-01-29T16:08:23;3.40;99.90
61916;DHT22;47868;51.326;6.550;2023-01-29T16:10:54;3.40;99.90
61916;DHT22;47868;51.326;6.550;2023-01-29T16:13:23;3.40;99.90
61916;DHT22;47868;51.326;6.550;2023-01-29T16:18:38;3.30;99.90
61916;DHT22;47868;51.326;6.550;2023-01-29T16:21:06;3.40;99.90
61916;DHT22;47868;51.326;6.550;2023-01-29T16:23:41;3.40;99.90
61916;DHT22;47868;51.326;6.550;2023-01-29T16:26:13;3.40;99.90
61916;DHT22;47868;51.326;6.550;2023-01-29T16:28:43;3.50;99.90
61916;DHT22;47868;51.326;6.550;2023-01-29T16:31:10;3.50;99.90
61916;DHT22;47868;51.326;6.550;2023-01-29T16:33:40;3.60;99.90
61916;DHT22;47868;51.326;6.550;2023-01-29T16:36:26;3.70;99.90
61916;DHT22;47868;51.326;6.550;2023-01-29T16:39:04;3.70;99.90
61916;DHT22;47868;51.326;6.550;2023-01-29T16:41:32;3.70;99.90
61916;DHT22;47868;51.326;6.550;2023-01-29T16:44:34;3.60;99.90
61916;DHT22;47868;51.326;6.550;2023-01-29T16:47:14;3.60;99.90
61916;DHT22;47868;51.326;6.550;2023-01-29T16:49:48;3.60;99.90
61916;DHT22;47868;51.326;6.550;2023-01-29T16:52:23;3.60;99.90
61916;DHT22;47868;51.326;6.550;2023-01-29T16:54:49;3.60;99.90
61916;DHT22;47868;51.326;6.550;2023-01-29T16:57:21;3.60;99.90
61916;DHT22;47868;51.326;6.550;2023-01-29T16:59:51;3.60;99.90
61916;DHT22;47868;51.326;6.550;2023-01-29T17:04:45;3.60;99.90
61916;DHT22;47868;51.326;6.550;2023-01-29T17:07:15;3.60;99.90
61916;DHT22;47868;51.326;6.550;2023-01-29T17:09:52;3.70;99.90
61916;DHT22;47868;51.326;6.550;2023-01-29T17:12:21;3.60;99.90
61916;DHT22;47868;51.326;6.550;2023-01-29T17:14:59;3.60;99.90
61916;DHT22;47868;51.326;6.550;2023-01-29T17:17:31;3.60;99.90
61916;DHT22;47868;51.326;6.550;2023-01-29T17:19:58;3.60;99.90
61916;DHT22;47868;51.326;6.550;2023-01-29T17:22:27;3.60;99.90
61916;DHT22;47868;51.326;6.550;2023-01-29T17:24:52;3.60;99.90
61916;DHT22;47868;51.326;6.550;2023-01-29T17:27:20;3.60;99.90
61916;DHT22;47868;51.326;6.550;2023-01-29T17:29:46;3.70;99.90
61916;DHT22;47868;51.326;6.550;2023-01-29T17:32:12;3.60;99.90
61916;DHT22;47868;51.326;6.550;2023-01-29T17:34:38;3.70;99.90
61916;DHT22;47868;51.326;6.550;2023-01-29T17:37:03;3.70;99.90
61916;DHT22;47868;51.326;6.550;2023-01-29T17:39:29;3.70;99.90
61916;DHT22;47868;51.326;6.550;2023-01-29T17:41:56;3.70;99.90
61916;DHT22;47868;51.326;6.550;2023-01-29T17:44:23;3.70;99.90
61916;DHT22;47868;51.326;6.550;2023-01-29T17:46:50;3.70;99.90
61916;DHT22;47868;51.326;6.550;2023-01-29T17:49:30;3.70;99.90
61916;DHT22;47868;51.326;6.550;2023-01-29T17:51:57;3.60;99.90
61916;DHT22;47868;51.326;6.550;2023-01-29T17:54:23;3.70;99.90
61916;DHT22;47868;51.326;6.550;2023-01-29T17:56:50;3.70;99.90
61916;DHT22;47868;51.326;6.550;2023-01-29T17:59:19;3.70;99.90
61916;DHT22;47868;51.326;6.550;2023-01-29T18:01:46;3.70;99.90
61916;DHT22;47868;51.326;6.550;2023-01-29T18:04:12;3.70;99.90
61916;DHT22;47868;51.326;6.550;2023-01-29T18:06:39;3.70;99.90
61916;DHT22;47868;51.326;6.550;2023-01-29T18:09:05;3.70;99.90
61916;DHT22;47868;51.326;6.550;2023-01-29T18:11:31;3.70;99.90
61916;DHT22;47868;51.326;6.550;2023-01-29T18:13:58;3.60;99.90
61916;DHT22;47868;51.326;6.550;2023-01-29T18:16:24;3.50;99.90
61916;DHT22;47868;51.326;6.550;2023-01-29T18:18:50;3.60;99.90
61916;DHT22;47868;51.326;6.550;2023-01-29T18:21:16;3.50;99.90
61916;DHT22;47868;51.326;6.550;2023-01-29T18:23:42;3.60;99.90
61916;DHT22;47868;51.326;6.550;2023-01-29T18:26:15;3.60;99.90
61916;DHT22;47868;51.326;6.550;2023-01-29T18:28:40;3.50;99.90
61916;DHT22;47868;51.326;6.550;2023-01-29T18:31:08;3.50;99.90
61916;DHT22;47868;51.326;6.550;2023-01-29T18:33:34;3.50;99.90
61916;DHT22;47868;51.326;6.550;2023-01-29T18:36:00;3.50;99.90
61916;DHT22;47868;51.326;6.550;2023-01-29T18:38:29;3.50;99.90
61916;DHT22;47868;51.326;6.550;2023-01-29T18:41:09;3.50;99.90
61916;DHT22;47868;51.326;6.550;2023-01-29T18:43:39;3.50;99.90
61916;DHT22;47868;51.326;6.550;2023-01-29T18:46:06;3.50;99.90
61916;DHT22;47868;51.326;6.550;2023-01-29T18:48:32;3.50;99.90
61916;DHT22;47868;51.326;6.550;2023-01-29T18:53:33;3.40;99.90
61916;DHT22;47868;51.326;6.550;2023-01-29T18:56:04;3.40;99.90
61916;DHT22;47868;51.326;6.550;2023-01-29T18:58:31;3.50;99.90
61916;DHT22;47868;51.326;6.550;2023-01-29T19:00:58;3.50;99.90
61916;DHT22;47868;51.326;6.550;2023-01-29T19:03:24;3.50;99.90
61916;DHT22;47868;51.326;6.550;2023-01-29T19:08:20;3.50;99.90
61916;DHT22;47868;51.326;6.550;2023-01-29T19:10:46;3.40;99.90
61916;DHT22;47868;51.326;6.550;2023-01-29T19:13:11;3.50;99.90
61916;DHT22;47868;51.326;6.550;2023-01-29T19:15:40;3.50;99.90